sensor_id;sensor_type;location;lat;lon;timestamp;P1;durP1;ratioP1;P2;durP2;ratioP2
13560;SDS011;6852;51.686;5.314;2023-04-01T00:01:28;5.90;;;2.87;;
13560;SDS011;6852;51.686;5.314;2023-04-01T00:03:54;6.00;;;3.30;;
13560;SDS011;6852;51.686;5.314;2023-04-01T00:06:23;4.80;;;3.30;;
13560;SDS011;6852;51.686;5.314;2023-04-01T00:08:50;4.17;;;3.30;;
13560;SDS011;6852;51.686;5.314;2023-04-01T00:11:17;3.83;;;3.23;;
13560;SDS011;6852;51.686;5.314;2023-04-01T00:13:46;5.23;;;3.30;;
13560;SDS011;6852;51.686;5.314;2023-04-01T00:16:13;4.00;;;3.43;;
13560;SDS011;6852;51.686;5.314;2023-04-01T00:18:48;3.57;;;3.20;;
13560;SDS011;6852;51.686;5.314;2023-04-01T00:21:16;4.63;;;3.23;;
13560;SDS011;6852;51.686;5.314;2023-04-01T00:23:44;5.03;;;3.30;;
13560;SDS011;6852;51.686;5.314;2023-04-01T00:26:11;5.93;;;3.30;;
13560;SDS011;6852;51.686;5.314;2023-04-01T00:28:39;7.97;;;3.63;;
13560;SDS011;6852;51.686;5.314;2023-04-01T00:31:08;3.67;;;3.30;;
13560;SDS011;6852;51.686;5.314;2023-04-01T00:33:36;5.73;;;3.67;;
13560;SDS011;6852;51.686;5.314;2023-04-01T00:36:07;4.80;;;4.13;;
13560;SDS011;6852;51.686;5.314;2023-04-01T00:38:36;3.87;;;3.47;;
13560;SDS011;6852;51.686;5.314;2023-04-01T00:41:04;5.87;;;4.40;;
13560;SDS011;6852;51.686;5.314;2023-04-01T00:43:32;5.77;;;4.00;;
13560;SDS011;6852;51.686;5.314;2023-04-01T00:46:00;4.40;;;3.80;;
13560;SDS011;6852;51.686;5.314;2023-04-01T00:48:31;5.07;;;4.07;;
13560;SDS011;6852;51.686;5.314;2023-04-01T00:51:05;4.20;;;3.50;;
13560;SDS011;6852;51.686;5.314;2023-04-01T00:53:34;4.77;;;3.80;;
13560;SDS011;6852;51.686;5.314;2023-04-01T00:58:38;4.20;;;3.57;;
13560;SDS011;6852;51.686;5.314;2023-04-01T01:01:09;4.77;;;3.53;;
13560;SDS011;6852;51.686;5.314;2023-04-01T01:03:36;6.30;;;3.37;;
13560;SDS011;6852;51.686;5.314;2023-04-01T01:11:39;6.03;;;3.10;;
13560;SDS011;6852;51.686;5.314;2023-04-01T01:14:38;3.00;;;2.67;;
13560;SDS011;6852;51.686;5.314;2023-04-01T01:17:32;3.30;;;2.40;;
13560;SDS011;6852;51.686;5.314;2023-04-01T01:34:03;1.50;;;0.90;;
13560;SDS011;6852;51.686;5.314;2023-04-01T01:36:42;4.10;;;1.20;;
13560;SDS011;6852;51.686;5.314;2023-04-01T01:39:12;2.30;;;1.53;;
13560;SDS011;6852;51.686;5.314;2023-04-01T01:41:40;3.03;;;1.90;;
13560;SDS011;6852;51.686;5.314;2023-04-01T01:44:10;2.43;;;2.17;;
13560;SDS011;6852;51.686;5.314;2023-04-01T01:46:38;3.17;;;2.87;;
13560;SDS011;6852;51.686;5.314;2023-04-01T01:49:07;3.37;;;2.23;;
13560;SDS011;6852;51.686;5.314;2023-04-01T01:51:37;3.43;;;1.77;;
13560;SDS011;6852;51.686;5.314;2023-04-01T01:54:06;1.60;;;1.40;;
13560;SDS011;6852;51.686;5.314;2023-04-01T01:56:32;2.00;;;1.67;;
13560;SDS011;6852;51.686;5.314;2023-04-01T01:59:03;3.20;;;1.90;;
13560;SDS011;6852;51.686;5.314;2023-04-01T02:01:33;3.53;;;1.50;;
13560;SDS011;6852;51.686;5.314;2023-04-01T02:04:03;2.47;;;1.63;;
13560;SDS011;6852;51.686;5.314;2023-04-01T02:06:32;2.10;;;1.60;;
13560;SDS011;6852;51.686;5.314;2023-04-01T02:09:05;1.57;;;1.40;;
13560;SDS011;6852;51.686;5.314;2023-04-01T02:11:34;1.80;;;1.40;;
13560;SDS011;6852;51.686;5.314;2023-04-01T02:14:13;1.67;;;1.23;;
13560;SDS011;6852;51.686;5.314;2023-04-01T02:16:58;1.33;;;1.23;;
13560;SDS011;6852;51.686;5.314;2023-04-01T02:19:34;1.57;;;1.33;;
13560;SDS011;6852;51.686;5.314;2023-04-01T02:22:06;3.30;;;1.60;;
13560;SDS011;6852;51.686;5.314;2023-04-01T02:24:37;2.53;;;1.53;;
13560;SDS011;6852;51.686;5.314;2023-04-01T02:27:06;2.73;;;1.70;;
13560;SDS011;6852;51.686;5.314;2023-04-01T02:29:33;3.00;;;2.00;;
13560;SDS011;6852;51.686;5.314;2023-04-01T02:32:00;4.53;;;2.10;;
13560;SDS011;6852;51.686;5.314;2023-04-01T02:34:29;3.27;;;2.20;;
13560;SDS011;6852;51.686;5.314;2023-04-01T02:36:56;3.50;;;1.97;;
13560;SDS011;6852;51.686;5.314;2023-04-01T02:39:23;2.00;;;1.80;;
13560;SDS011;6852;51.686;5.314;2023-04-01T02:41:52;2.53;;;1.83;;
13560;SDS011;6852;51.686;5.314;2023-04-01T02:44:19;4.73;;;1.97;;
13560;SDS011;6852;51.686;5.314;2023-04-01T02:46:46;3.17;;;2.10;;
13560;SDS011;6852;51.686;5.314;2023-04-01T02:49:13;5.13;;;2.07;;
13560;SDS011;6852;51.686;5.314;2023-04-01T02:51:40;5.60;;;1.80;;
13560;SDS011;6852;51.686;5.314;2023-04-01T02:54:07;1.90;;;1.43;;
13560;SDS011;6852;51.686;5.314;2023-04-01T02:56:34;2.20;;;1.50;;
13560;SDS011;6852;51.686;5.314;2023-04-01T02:59:01;1.87;;;1.60;;
13560;SDS011;6852;51.686;5.314;2023-04-01T03:01:28;2.13;;;1.90;;
13560;SDS011;6852;51.686;5.314;2023-04-01T03:03:55;5.40;;;2.10;;
13560;SDS011;6852;51.686;5.314;2023-04-01T03:06:21;4.30;;;2.40;;
13560;SDS011;6852;51.686;5.314;2023-04-01T03:08:48;3.43;;;1.83;;
13560;SDS011;6852;51.686;5.314;2023-04-01T03:11:15;3.27;;;2.20;;
13560;SDS011;6852;51.686;5.314;2023-04-01T03:13:42;2.43;;;2.20;;
13560;SDS011;6852;51.686;5.314;2023-04-01T03:16:09;3.37;;;1.97;;
13560;SDS011;6852;51.686;5.314;2023-04-01T03:18:36;2.37;;;1.50;;
13560;SDS011;6852;51.686;5.314;2023-04-01T03:21:13;3.30;;;1.83;;
13560;SDS011;6852;51.686;5.314;2023-04-01T03:23:42;2.20;;;1.63;;
13560;SDS011;6852;51.686;5.314;2023-04-01T03:26:09;3.30;;;1.67;;
13560;SDS011;6852;51.686;5.314;2023-04-01T03:28:36;3.07;;;2.03;;
13560;SDS011;6852;51.686;5.314;2023-04-01T03:31:03;3.57;;;1.63;;
13560;SDS011;6852;51.686;5.314;2023-04-01T03:33:30;2.60;;;2.00;;
13560;SDS011;6852;51.686;5.314;2023-04-01T03:35:57;3.50;;;2.10;;
13560;SDS011;6852;51.686;5.314;2023-04-01T03:38:24;6.10;;;2.40;;
13560;SDS011;6852;51.686;5.314;2023-04-01T03:40:51;5.93;;;2.73;;
13560;SDS011;6852;51.686;5.314;2023-04-01T03:43:18;4.77;;;2.47;;
13560;SDS011;6852;51.686;5.314;2023-04-01T03:45:46;3.03;;;2.40;;
13560;SDS011;6852;51.686;5.314;2023-04-01T03:48:14;4.20;;;2.53;;
13560;SDS011;6852;51.686;5.314;2023-04-01T03:50:41;7.53;;;2.77;;
13560;SDS011;6852;51.686;5.314;2023-04-01T03:53:08;4.57;;;2.50;;
13560;SDS011;6852;51.686;5.314;2023-04-01T03:55:36;3.43;;;2.50;;
13560;SDS011;6852;51.686;5.314;2023-04-01T03:58:03;3.17;;;2.50;;
13560;SDS011;6852;51.686;5.314;2023-04-01T04:00:31;5.13;;;2.87;;
13560;SDS011;6852;51.686;5.314;2023-04-01T04:02:58;3.93;;;2.47;;
13560;SDS011;6852;51.686;5.314;2023-04-01T04:05:27;3.87;;;2.10;;
13560;SDS011;6852;51.686;5.314;2023-04-01T04:07:54;3.20;;;2.20;;
13560;SDS011;6852;51.686;5.314;2023-04-01T04:10:21;2.40;;;1.83;;
13560;SDS011;6852;51.686;5.314;2023-04-01T04:12:49;3.87;;;1.70;;
13560;SDS011;6852;51.686;5.314;2023-04-01T04:15:16;2.87;;;1.93;;
13560;SDS011;6852;51.686;5.314;2023-04-01T04:17:44;3.63;;;1.90;;
13560;SDS011;6852;51.686;5.314;2023-04-01T04:20:11;2.70;;;1.87;;
13560;SDS011;6852;51.686;5.314;2023-04-01T04:22:39;3.23;;;1.87;;
13560;SDS011;6852;51.686;5.314;2023-04-01T04:25:06;2.27;;;1.97;;
13560;SDS011;6852;51.686;5.314;2023-04-01T04:27:34;1.67;;;1.57;;
13560;SDS011;6852;51.686;5.314;2023-04-01T04:30:01;4.77;;;2.20;;
13560;SDS011;6852;51.686;5.314;2023-04-01T04:32:29;5.93;;;2.03;;
13560;SDS011;6852;51.686;5.314;2023-04-01T04:34:56;1.93;;;1.60;;
13560;SDS011;6852;51.686;5.314;2023-04-01T04:37:23;2.90;;;2.10;;
13560;SDS011;6852;51.686;5.314;2023-04-01T04:39:51;4.27;;;2.23;;
13560;SDS011;6852;51.686;5.314;2023-04-01T04:42:18;3.57;;;2.60;;
13560;SDS011;6852;51.686;5.314;2023-04-01T04:44:45;2.57;;;2.20;;
13560;SDS011;6852;51.686;5.314;2023-04-01T04:47:12;4.17;;;2.60;;
13560;SDS011;6852;51.686;5.314;2023-04-01T04:49:39;3.53;;;2.70;;
13560;SDS011;6852;51.686;5.314;2023-04-01T04:52:06;4.70;;;3.30;;
13560;SDS011;6852;51.686;5.314;2023-04-01T04:54:33;5.83;;;3.73;;
13560;SDS011;6852;51.686;5.314;2023-04-01T04:57:01;5.97;;;3.87;;
13560;SDS011;6852;51.686;5.314;2023-04-01T04:59:28;6.40;;;4.37;;
13560;SDS011;6852;51.686;5.314;2023-04-01T05:01:56;6.77;;;4.73;;
13560;SDS011;6852;51.686;5.314;2023-04-01T05:04:23;8.47;;;4.77;;
13560;SDS011;6852;51.686;5.314;2023-04-01T05:06:50;5.90;;;4.80;;
13560;SDS011;6852;51.686;5.314;2023-04-01T05:09:17;9.10;;;5.53;;
13560;SDS011;6852;51.686;5.314;2023-04-01T05:11:44;6.07;;;5.07;;
13560;SDS011;6852;51.686;5.314;2023-04-01T05:14:15;8.83;;;5.60;;
13560;SDS011;6852;51.686;5.314;2023-04-01T05:16:42;6.97;;;5.37;;
13560;SDS011;6852;51.686;5.314;2023-04-01T05:19:09;8.70;;;5.37;;
13560;SDS011;6852;51.686;5.314;2023-04-01T05:21:36;7.47;;;5.70;;
13560;SDS011;6852;51.686;5.314;2023-04-01T05:24:03;7.37;;;5.43;;
13560;SDS011;6852;51.686;5.314;2023-04-01T05:26:33;7.40;;;5.93;;
13560;SDS011;6852;51.686;5.314;2023-04-01T05:29:00;8.10;;;5.97;;
13560;SDS011;6852;51.686;5.314;2023-04-01T05:31:27;8.77;;;6.17;;
13560;SDS011;6852;51.686;5.314;2023-04-01T05:33:54;8.30;;;5.80;;
13560;SDS011;6852;51.686;5.314;2023-04-01T05:36:21;7.53;;;6.17;;
13560;SDS011;6852;51.686;5.314;2023-04-01T05:38:48;10.70;;;6.27;;
13560;SDS011;6852;51.686;5.314;2023-04-01T05:41:16;11.07;;;7.03;;
13560;SDS011;6852;51.686;5.314;2023-04-01T05:43:43;11.80;;;7.20;;
13560;SDS011;6852;51.686;5.314;2023-04-01T05:46:10;11.70;;;7.53;;
13560;SDS011;6852;51.686;5.314;2023-04-01T05:48:38;13.00;;;8.47;;
13560;SDS011;6852;51.686;5.314;2023-04-01T05:51:05;12.23;;;7.93;;
13560;SDS011;6852;51.686;5.314;2023-04-01T05:53:32;12.77;;;7.90;;
13560;SDS011;6852;51.686;5.314;2023-04-01T05:56:01;12.70;;;8.67;;
13560;SDS011;6852;51.686;5.314;2023-04-01T05:58:29;13.00;;;8.30;;
13560;SDS011;6852;51.686;5.314;2023-04-01T06:01:00;12.40;;;7.77;;
13560;SDS011;6852;51.686;5.314;2023-04-01T06:03:39;12.50;;;7.10;;
13560;SDS011;6852;51.686;5.314;2023-04-01T06:06:11;11.83;;;7.23;;
13560;SDS011;6852;51.686;5.314;2023-04-01T06:08:49;13.17;;;7.33;;
13560;SDS011;6852;51.686;5.314;2023-04-01T06:25:24;13.23;;;6.67;;
13560;SDS011;6852;51.686;5.314;2023-04-01T06:45:35;16.63;;;8.50;;
13560;SDS011;6852;51.686;5.314;2023-04-01T06:51:07;14.77;;;7.90;;
13560;SDS011;6852;51.686;5.314;2023-04-01T06:53:50;20.67;;;8.37;;
13560;SDS011;6852;51.686;5.314;2023-04-01T06:56:32;15.77;;;7.73;;
13560;SDS011;6852;51.686;5.314;2023-04-01T06:59:17;16.07;;;8.63;;
13560;SDS011;6852;51.686;5.314;2023-04-01T07:02:01;16.37;;;8.63;;
13560;SDS011;6852;51.686;5.314;2023-04-01T07:04:39;16.03;;;8.33;;
13560;SDS011;6852;51.686;5.314;2023-04-01T07:07:21;15.80;;;6.83;;
13560;SDS011;6852;51.686;5.314;2023-04-01T07:10:02;12.27;;;7.10;;
13560;SDS011;6852;51.686;5.314;2023-04-01T07:12:43;15.80;;;7.77;;
13560;SDS011;6852;51.686;5.314;2023-04-01T07:17:48;12.77;;;6.83;;
13560;SDS011;6852;51.686;5.314;2023-04-01T07:22:55;13.07;;;7.53;;
13560;SDS011;6852;51.686;5.314;2023-04-01T07:28:04;15.07;;;7.07;;
13560;SDS011;6852;51.686;5.314;2023-04-01T07:34:30;8.00;;;5.27;;
13560;SDS011;6852;51.686;5.314;2023-04-01T07:47:50;10.93;;;6.53;;
13560;SDS011;6852;51.686;5.314;2023-04-01T07:50:29;10.43;;;6.73;;
13560;SDS011;6852;51.686;5.314;2023-04-01T07:53:09;10.53;;;6.77;;
13560;SDS011;6852;51.686;5.314;2023-04-01T08:07:00;12.43;;;7.80;;
13560;SDS011;6852;51.686;5.314;2023-04-01T08:09:37;15.50;;;8.83;;
13560;SDS011;6852;51.686;5.314;2023-04-01T08:15:32;15.73;;;8.13;;
13560;SDS011;6852;51.686;5.314;2023-04-01T08:18:26;16.97;;;8.67;;
13560;SDS011;6852;51.686;5.314;2023-04-01T08:21:05;12.17;;;8.07;;
13560;SDS011;6852;51.686;5.314;2023-04-01T08:23:47;13.80;;;8.37;;
13560;SDS011;6852;51.686;5.314;2023-04-01T08:29:00;15.20;;;8.77;;
13560;SDS011;6852;51.686;5.314;2023-04-01T08:34:30;15.00;;;8.90;;
13560;SDS011;6852;51.686;5.314;2023-04-01T08:37:07;13.70;;;8.43;;
13560;SDS011;6852;51.686;5.314;2023-04-01T08:39:46;13.73;;;9.27;;
13560;SDS011;6852;51.686;5.314;2023-04-01T08:42:27;12.17;;;8.23;;
13560;SDS011;6852;51.686;5.314;2023-04-01T08:50:45;13.03;;;8.33;;
13560;SDS011;6852;51.686;5.314;2023-04-01T08:53:38;11.50;;;8.00;;
13560;SDS011;6852;51.686;5.314;2023-04-01T09:14:43;11.77;;;6.57;;
13560;SDS011;6852;51.686;5.314;2023-04-01T09:20:03;10.17;;;6.87;;
13560;SDS011;6852;51.686;5.314;2023-04-01T09:38:58;10.47;;;6.10;;
13560;SDS011;6852;51.686;5.314;2023-04-01T09:41:41;9.43;;;5.90;;
13560;SDS011;6852;51.686;5.314;2023-04-01T09:44:39;9.73;;;6.33;;
13560;SDS011;6852;51.686;5.314;2023-04-01T09:47:42;12.27;;;5.87;;
13560;SDS011;6852;51.686;5.314;2023-04-01T09:52:56;8.30;;;5.33;;
13560;SDS011;6852;51.686;5.314;2023-04-01T10:31:53;5.97;;;4.33;;
13560;SDS011;6852;51.686;5.314;2023-04-01T10:34:56;7.30;;;4.60;;
13560;SDS011;6852;51.686;5.314;2023-04-01T10:44:08;8.33;;;4.67;;
13560;SDS011;6852;51.686;5.314;2023-04-01T11:18:25;7.03;;;4.80;;
13560;SDS011;6852;51.686;5.314;2023-04-01T11:32:33;7.67;;;4.50;;
13560;SDS011;6852;51.686;5.314;2023-04-01T11:43:37;4.03;;;3.10;;
13560;SDS011;6852;51.686;5.314;2023-04-01T11:49:07;3.67;;;2.60;;
13560;SDS011;6852;51.686;5.314;2023-04-01T11:57:34;3.93;;;2.57;;
13560;SDS011;6852;51.686;5.314;2023-04-01T12:00:18;3.23;;;2.50;;
13560;SDS011;6852;51.686;5.314;2023-04-01T12:12:14;5.10;;;2.97;;
13560;SDS011;6852;51.686;5.314;2023-04-01T12:20:38;3.20;;;2.90;;
13560;SDS011;6852;51.686;5.314;2023-04-01T12:26:23;4.30;;;3.27;;
13560;SDS011;6852;51.686;5.314;2023-04-01T12:32:01;5.43;;;3.50;;
13560;SDS011;6852;51.686;5.314;2023-04-01T12:35:33;4.53;;;3.13;;
13560;SDS011;6852;51.686;5.314;2023-04-01T12:46:46;5.10;;;3.13;;
13560;SDS011;6852;51.686;5.314;2023-04-01T12:52:11;5.53;;;2.93;;
13560;SDS011;6852;51.686;5.314;2023-04-01T13:13:48;2.90;;;2.40;;
13560;SDS011;6852;51.686;5.314;2023-04-01T13:17:06;4.70;;;3.00;;
13560;SDS011;6852;51.686;5.314;2023-04-01T13:19:54;3.87;;;3.33;;
13560;SDS011;6852;51.686;5.314;2023-04-01T13:39:35;6.70;;;4.17;;
13560;SDS011;6852;51.686;5.314;2023-04-01T13:42:25;7.33;;;4.23;;
13560;SDS011;6852;51.686;5.314;2023-04-01T13:51:41;4.77;;;3.93;;
13560;SDS011;6852;51.686;5.314;2023-04-01T14:00:19;5.97;;;4.30;;
13560;SDS011;6852;51.686;5.314;2023-04-01T14:05:28;8.43;;;4.47;;
13560;SDS011;6852;51.686;5.314;2023-04-01T14:08:29;7.17;;;4.60;;
13560;SDS011;6852;51.686;5.314;2023-04-01T14:13:56;6.43;;;4.87;;
13560;SDS011;6852;51.686;5.314;2023-04-01T14:25:18;7.83;;;5.03;;
13560;SDS011;6852;51.686;5.314;2023-04-01T14:31:13;7.83;;;5.20;;
13560;SDS011;6852;51.686;5.314;2023-04-01T14:48:32;7.60;;;4.90;;
13560;SDS011;6852;51.686;5.314;2023-04-01T14:56:42;8.07;;;5.43;;
13560;SDS011;6852;51.686;5.314;2023-04-01T15:04:31;7.87;;;5.47;;
13560;SDS011;6852;51.686;5.314;2023-04-01T15:12:50;7.57;;;5.30;;
13560;SDS011;6852;51.686;5.314;2023-04-01T15:27:10;6.70;;;4.70;;
13560;SDS011;6852;51.686;5.314;2023-04-01T15:40:49;7.23;;;4.67;;
13560;SDS011;6852;51.686;5.314;2023-04-01T15:43:48;5.90;;;5.00;;
13560;SDS011;6852;51.686;5.314;2023-04-01T15:54:25;8.07;;;5.77;;
13560;SDS011;6852;51.686;5.314;2023-04-01T15:56:59;8.03;;;5.10;;
13560;SDS011;6852;51.686;5.314;2023-04-01T15:59:47;6.67;;;4.73;;
13560;SDS011;6852;51.686;5.314;2023-04-01T16:02:37;6.53;;;5.37;;
13560;SDS011;6852;51.686;5.314;2023-04-01T16:05:20;6.07;;;5.20;;
13560;SDS011;6852;51.686;5.314;2023-04-01T16:21:56;5.10;;;3.73;;
13560;SDS011;6852;51.686;5.314;2023-04-01T16:24:35;6.73;;;3.97;;
13560;SDS011;6852;51.686;5.314;2023-04-01T16:35:01;3.77;;;3.20;;
13560;SDS011;6852;51.686;5.314;2023-04-01T16:37:48;4.20;;;3.10;;
13560;SDS011;6852;51.686;5.314;2023-04-01T16:45:36;4.47;;;3.37;;
13560;SDS011;6852;51.686;5.314;2023-04-01T16:48:43;4.33;;;3.50;;
13560;SDS011;6852;51.686;5.314;2023-04-01T16:51:18;4.67;;;3.57;;
13560;SDS011;6852;51.686;5.314;2023-04-01T16:56:52;6.07;;;3.77;;
13560;SDS011;6852;51.686;5.314;2023-04-01T16:59:24;4.63;;;3.20;;
13560;SDS011;6852;51.686;5.314;2023-04-01T17:02:08;4.77;;;3.60;;
13560;SDS011;6852;51.686;5.314;2023-04-01T17:04:44;4.60;;;3.60;;
13560;SDS011;6852;51.686;5.314;2023-04-01T17:21:07;4.53;;;3.07;;
13560;SDS011;6852;51.686;5.314;2023-04-01T17:32:51;8.17;;;5.53;;
13560;SDS011;6852;51.686;5.314;2023-04-01T17:38:45;3.70;;;3.10;;
13560;SDS011;6852;51.686;5.314;2023-04-01T17:41:28;3.97;;;3.03;;
13560;SDS011;6852;51.686;5.314;2023-04-01T17:52:01;5.20;;;4.47;;
13560;SDS011;6852;51.686;5.314;2023-04-01T18:01:17;7.47;;;5.57;;
13560;SDS011;6852;51.686;5.314;2023-04-01T18:06:18;3.80;;;3.40;;
13560;SDS011;6852;51.686;5.314;2023-04-01T18:11:53;8.17;;;6.37;;
13560;SDS011;6852;51.686;5.314;2023-04-01T18:14:37;5.20;;;4.60;;
13560;SDS011;6852;51.686;5.314;2023-04-01T18:17:25;7.13;;;5.60;;
13560;SDS011;6852;51.686;5.314;2023-04-01T18:22:59;10.07;;;6.87;;
13560;SDS011;6852;51.686;5.314;2023-04-01T18:25:39;7.10;;;6.10;;
13560;SDS011;6852;51.686;5.314;2023-04-01T18:33:34;6.33;;;4.67;;
13560;SDS011;6852;51.686;5.314;2023-04-01T18:36:16;5.87;;;4.20;;
13560;SDS011;6852;51.686;5.314;2023-04-01T18:38:54;4.97;;;4.33;;
13560;SDS011;6852;51.686;5.314;2023-04-01T18:41:35;4.87;;;4.07;;
13560;SDS011;6852;51.686;5.314;2023-04-01T18:50:20;4.70;;;4.20;;
13560;SDS011;6852;51.686;5.314;2023-04-01T18:55:39;6.97;;;4.27;;
13560;SDS011;6852;51.686;5.314;2023-04-01T18:58:20;5.23;;;4.47;;
13560;SDS011;6852;51.686;5.314;2023-04-01T19:06:45;6.13;;;4.57;;
13560;SDS011;6852;51.686;5.314;2023-04-01T19:22:56;4.00;;;3.50;;
13560;SDS011;6852;51.686;5.314;2023-04-01T19:25:46;4.07;;;3.47;;
13560;SDS011;6852;51.686;5.314;2023-04-01T19:31:37;4.37;;;3.40;;
13560;SDS011;6852;51.686;5.314;2023-04-01T19:37:01;5.97;;;4.87;;
13560;SDS011;6852;51.686;5.314;2023-04-01T19:51:10;5.37;;;4.57;;
13560;SDS011;6852;51.686;5.314;2023-04-01T19:59:19;6.03;;;5.10;;
13560;SDS011;6852;51.686;5.314;2023-04-01T20:02:32;6.30;;;4.93;;
13560;SDS011;6852;51.686;5.314;2023-04-01T20:05:26;6.47;;;5.43;;
13560;SDS011;6852;51.686;5.314;2023-04-01T20:10:45;7.70;;;5.27;;
13560;SDS011;6852;51.686;5.314;2023-04-01T20:16:08;5.43;;;4.77;;
13560;SDS011;6852;51.686;5.314;2023-04-01T20:18:39;6.07;;;5.17;;
13560;SDS011;6852;51.686;5.314;2023-04-01T20:26:12;6.67;;;5.23;;
13560;SDS011;6852;51.686;5.314;2023-04-01T20:28:44;7.20;;;5.13;;
13560;SDS011;6852;51.686;5.314;2023-04-01T20:53:15;5.80;;;4.23;;
13560;SDS011;6852;51.686;5.314;2023-04-01T20:58:53;3.67;;;3.07;;
13560;SDS011;6852;51.686;5.314;2023-04-01T21:04:27;4.03;;;3.63;;
13560;SDS011;6852;51.686;5.314;2023-04-01T21:09:53;4.43;;;3.63;;
13560;SDS011;6852;51.686;5.314;2023-04-01T21:48:44;7.60;;;6.00;;
13560;SDS011;6852;51.686;5.314;2023-04-01T21:51:29;6.27;;;5.20;;
13560;SDS011;6852;51.686;5.314;2023-04-01T21:54:30;7.50;;;6.50;;
13560;SDS011;6852;51.686;5.314;2023-04-01T21:57:27;7.87;;;6.40;;
13560;SDS011;6852;51.686;5.314;2023-04-01T22:00:17;8.97;;;6.50;;
13560;SDS011;6852;51.686;5.314;2023-04-01T22:18:42;10.43;;;7.60;;
13560;SDS011;6852;51.686;5.314;2023-04-01T22:26:48;9.10;;;7.07;;
13560;SDS011;6852;51.686;5.314;2023-04-01T22:32:27;9.43;;;7.23;;
13560;SDS011;6852;51.686;5.314;2023-04-01T22:35:08;8.40;;;7.30;;
13560;SDS011;6852;51.686;5.314;2023-04-01T22:40:23;11.23;;;7.70;;
13560;SDS011;6852;51.686;5.314;2023-04-01T22:43:08;8.47;;;6.30;;
13560;SDS011;6852;51.686;5.314;2023-04-01T22:45:53;7.47;;;6.10;;
13560;SDS011;6852;51.686;5.314;2023-04-01T22:54:42;8.43;;;6.47;;
13560;SDS011;6852;51.686;5.314;2023-04-01T22:57:16;8.63;;;6.50;;
13560;SDS011;6852;51.686;5.314;2023-04-01T23:00:05;7.13;;;6.43;;
13560;SDS011;6852;51.686;5.314;2023-04-01T23:02:46;6.70;;;5.43;;
13560;SDS011;6852;51.686;5.314;2023-04-01T23:05:26;8.80;;;6.00;;
13560;SDS011;6852;51.686;5.314;2023-04-01T23:11:00;6.87;;;5.73;;
13560;SDS011;6852;51.686;5.314;2023-04-01T23:13:32;8.97;;;5.83;;
13560;SDS011;6852;51.686;5.314;2023-04-01T23:16:04;7.60;;;6.23;;
13560;SDS011;6852;51.686;5.314;2023-04-01T23:18:42;7.17;;;5.97;;
13560;SDS011;6852;51.686;5.314;2023-04-01T23:21:35;8.23;;;6.20;;
13560;SDS011;6852;51.686;5.314;2023-04-01T23:24:28;7.93;;;6.20;;
13560;SDS011;6852;51.686;5.314;2023-04-01T23:27:05;6.30;;;5.27;;
13560;SDS011;6852;51.686;5.314;2023-04-01T23:29:37;8.37;;;5.93;;
13560;SDS011;6852;51.686;5.314;2023-04-01T23:32:13;5.27;;;4.67;;
13560;SDS011;6852;51.686;5.314;2023-04-01T23:34:49;5.47;;;4.97;;
13560;SDS011;6852;51.686;5.314;2023-04-01T23:37:17;7.30;;;5.63;;
13560;SDS011;6852;51.686;5.314;2023-04-01T23:39:47;8.57;;;5.97;;
13560;SDS011;6852;51.686;5.314;2023-04-01T23:42:20;6.93;;;5.73;;
13560;SDS011;6852;51.686;5.314;2023-04-01T23:44:49;6.23;;;4.90;;
13560;SDS011;6852;51.686;5.314;2023-04-01T23:47:29;6.93;;;5.30;;
13560;SDS011;6852;51.686;5.314;2023-04-01T23:50:03;5.90;;;4.80;;
13560;SDS011;6852;51.686;5.314;2023-04-01T23:52:46;5.47;;;4.77;;
13560;SDS011;6852;51.686;5.314;2023-04-01T23:55:19;4.87;;;4.33;;
